Terminal Aerodrome Forecast
Issued by NWS

Current Version | Previous Version | Text Only | Print | Product List | Glossary On
Versions: 1 2 3 4 5 6 7 8 9 10 11 12 13
000
FTUS42 KTAE 292320
TAFDHN
TAF
KDHN 292320Z 3000/3024 28005KT P6SM SCT120 BKN250
     FM301400 30005KT P6SM SCT040
     FM301800 20010KT P6SM VCTS SCT050CB=

USA.gov is the U.S. government's official web portal to all federal, state and local government web resources and services.